Tiempo atmosférico en la estación meteorológica de Puerto De La Cruz, Santa Cruz de Tenerife (25 m.)



Fecha
DESCASC
Temp. máxima en grados centígrados (hora)
DESCASC
Temp. mínima en grados centígrados (hora)
DESCASC
Temp. media en grados centígrados
DESCASC
Racha de viento máxima en m/sg (hora)
DESCASC
Velocidad máxima media en intervalos de 10 minutos(hora)
DESCASC
Precipitaciones diarias en mm
DESCASC
Precipitaciones de 00:00 a 06:00 en mm
DESCASC
Precipitaciones de 06:00 a 12:00 en mm
DESCASC
Precipitaciones de 12:00 a 18:00 en mm
DESCASC
Precipitaciones de 18:00 a 24:00 en mm
DESCASC
26-11-2020 19.4 (00:00) 15.7 (10:40) 17.5 13.33 (14:10) 6.39 (15:40) 10.3 0.7 1.6 7.4 0.6
25-11-2020 23.5 (13:10) 17.7 (06:50) 20.6 11.39 (18:10) 7.22 (18:10) 0 0 0 0 0
24-11-2020 25.6 (16:30) 18.8 (23:50) 22.2 4.72 (02:30) 2.78 (02:30) 0 0 0 0 0
23-11-2020 26.1 (12:30) 19.1 (06:30) 22.6 4.44 (07:20) 2.5 (03:30) 0 0 0 0 0
22-11-2020 26.7 (15:10) 19.4 (00:00) 23.1 4.72 (02:30) 2.22 (23:59) 0 0 0 0 0
21-11-2020 25.2 (11:10) 18.8 (00:00) 22 5 (03:20) 2.22 (01:50) 0 0 0 0 0
20-11-2020 23.9 (14:40) 18.4 (00:00) 21.1 5.56 (07:20) 2.78 (13:40) 0 0 0 0 0
19-11-2020 26 (13:10) 19.5 (00:00) 22.8 10 (11:50) 7.78 (12:00) 0 0 0 0 0
18-11-2020 25.8 (09:30) 20.7 (00:00) 23.3 5.28 (22:10) 3.89 (17:10) 0 0 0 0 0
17-11-2020 28.6 (13:30) 20.6 (00:00) 24.6 4.17 (21:20) 2.22 (21:20) 0 0 0 0 0
16-11-2020 25.7 (15:40) 20.4 (00:00) 23.1 4.72 (17:10) 3.61 (17:10) 0 0 0 0 0
15-11-2020 26.9 (14:40) 20 (00:00) 23.4 5 (21:20) 3.61 (15:30) 0 0 0 0 0
14-11-2020 26.6 (13:00) 20.1 (00:00) 23.4 8.89 (20:30) 5.83 (20:30) 0 0 0 0 0
13-11-2020 23.6 (13:10) 20.6 (00:00) 22.1 8.06 (11:10) 5.28 (14:00) 0 0 0 0 0
12-11-2020 23.3 (13:10) 19.4 (00:00) 21.3 5.83 (01:10) 2.78 (11:40) 0 0 0 0 0
11-11-2020 24.3 (15:40) 17.9 (00:00) 21.1 6.39 (22:40) 5 (22:40) 0 0 0 0 0
10-11-2020 25.9 (13:50) 18.2 (00:00) 22.1 4.72 (01:00) 2.5 (06:30) 0 0 0 0 0
09-11-2020 24.5 (12:20) 17.7 (00:00) 21.1 11.39 (18:00) 8.89 (17:50) 0 0 0 0 0
08-11-2020 24.6 (12:30) 17.7 (00:00) 21.2 4.17 (23:59) 2.5 (23:59) 0 0 0 0 0
07-11-2020 24.2 (15:40) 17.3 (00:00) 20.8 5.28 (04:10) 3.06 (04:00) 0 0 0 0 0
06-11-2020 23.5 (15:00) 18.2 (00:00) 20.9 11.39 (08:30) 5.28 (11:40) 0 0 0 0 0
05-11-2020 22.6 (16:40) 16.9 (00:00) 19.8 6.67 (10:00) 4.17 (09:50) 0.1 0.1 0 0 0
04-11-2020 21.8 (13:20) 17.3 (00:00) 19.5 13.06 (10:20) 10.83 (12:00) 9.9 0 0 5.8 4.1
03-11-2020 25.2 (13:40) 19.9 (00:00) 22.6 10 (12:30) 7.78 (12:30) 0 0 0 0 0
02-11-2020 25.7 (12:50) 18.6 (00:00) 22.2 7.78 (11:50) 6.39 (11:50) 0 0 0 0 0
01-11-2020 32.5 (13:30) 20.5 (00:00) 26.5 20 (15:00) 14.44 (15:00) 0 0 0 0 0
31-10-2020 27.9 (17:00) 18.9 (00:00) 23.4 10.56 (23:59) 5.83 (23:59) 0 0 0 0 0
30-10-2020 25.4 (11:30) 20 (00:00) 22.7 4.72 (14:10) 3.33 (10:50) 0 0 0 0 0
29-10-2020 23.6 (11:10) 20.7 (00:00) 22.2 6.39 (19:00) 4.72 (19:10) 0 0 0 0 0
28-10-2020 23.2 (13:30) 20.2 (00:00) 21.7 10 (12:40) 7.78 (12:40) 0 0 0 0 0

Gráficas

Temp. máximas Temp. mínimas Temp. medias Precipitaciones Rachas de viento máximas Velocidades máximas media en intervalos de 10 minutos

Datos horarios

Fecha y hora oficial Temperatura (ºC) Velocidad del viento (km/h) Dirección del viento Racha (km/h) Dirección de racha Precipitación (mm) Presión (hPa) Tendencia (hPa) Humedad (%)
2020-11-26 23:00:00 16.8 7 Noroeste 33 Noroeste 0.5 1014.4 0.8 85
2020-11-26 22:00:00 18.3 9 Norte 35 Noroeste 0 1014.1 1 75
2020-11-26 21:00:00 18.7 13 Oeste 26 Oeste 0 1013.6 -- 72
2020-11-26 20:00:00 17.7 12 Noroeste 33 Noroeste 0 1013.6 -- 75
2020-11-26 19:00:00 18.8 15 Noroeste 32 Noroeste 0.1 1013.1 -- 68
2020-11-26 18:00:00 18.5 14 Oeste 28 Noroeste 2.3 1012.8 -- 75
2020-11-26 17:00:00 18.2 12 Oeste 24 Oeste 0 1012.8 -- 77
2020-11-26 16:00:00 16.5 7 Oeste 46 Oeste 1.5 1013.3 -- 95
2020-11-26 15:00:00 18.3 11 Sudoeste 48 Noroeste 1.7 1013.1 -- 80
2020-11-26 14:00:00 19 13 Sudoeste 31 Oeste 0 1013.1 -- 65
2020-11-26 13:00:00 17.5 11 Sudoeste 30 Oeste 1.9 1014.7 -- 80
2020-11-26 12:00:00 17.2 14 Oeste 35 Oeste 0.2 1016 -- 86
2020-11-26 11:00:00 17.2 3 Sudoeste 37 Noroeste 0.9 1016.2 -- 88
2020-11-26 10:00:00 17.9 12 Oeste 24 Oeste 0 1015.8 -- 66
2020-11-26 09:00:00 16.3 11 Oeste 40 Noroeste 0.3 1016.3 -- 90
2020-11-26 08:00:00 18.4 15 Oeste 30 Noroeste 0.2 1015.5 -- 70
2020-11-26 07:00:00 17.9 10 Sudoeste 26 Sudoeste 0 1015.3 -- 68
2020-11-26 06:00:00 17.5 7 Sudoeste 24 Sudoeste 0.1 1015.5 -- 70
2020-11-26 05:00:00 17 7 Sudoeste 23 Sudoeste 0 1015.5 -- 75
2020-11-26 04:00:00 16.3 10 Oeste 41 Noroeste 0.6 1016.6 -- 82
2020-11-26 03:00:00 17.9 13 Noroeste 32 Noroeste 0 1016.7 -- 77
2020-11-26 02:00:00 18.1 18 Noroeste 37 Noroeste 0 1017 -- 77
2020-11-26 01:00:00 18.9 12 Noroeste 28 Noroeste 0 1017.3 -- 73
2020-11-26 00:00:00 19.4 10 Oeste 24 Oeste 0 1017.8 -- 57
2020-11-25 23:00:00 19.6 14 Oeste 29 Noroeste 0 1018.2 -- 61
2020-11-25 22:00:00 19.7 17 Noroeste 33 Noroeste 0 1018.3 -- 61
2020-11-25 21:00:00 19.8 16 Noroeste 33 Noroeste 0 1018 -- 70
2020-11-25 20:00:00 19.6 13 Noroeste 36 Norte 0 1017.9 -- 79
2020-11-25 19:00:00 18.9 21 Norte 41 Norte 0 1017.7 -- 83
2020-11-25 18:00:00 19.8 19 Norte 34 Nordeste 0 1017.4 -- 84
2020-11-25 17:00:00 20.3 10 Norte 34 Norte 0 1016.9 -- 83
2020-11-25 16:00:00 22 9 Oeste 14 Oeste 0 1016.4 -- 66
2020-11-25 15:00:00 22.4 7 Noroeste 13 Noroeste 0 1016.5 -- 65
2020-11-25 14:00:00 22.5 6 Noroeste 16 Noroeste 0 1016.7 -- 66
2020-11-25 13:00:00 23 2 Sudoeste 20 Noroeste 0 1017.5 -- 65
2020-11-25 12:00:00 22 6 Norte -- -- -- 1019 -- 71
2020-11-25 11:00:00 22.1 4 Norte 9 Norte 0 1019.4 -- 62
2020-11-25 10:00:00 23 0 Calma 7 Sudeste 0 1018.8 -- 47
2020-11-25 09:00:00 20.2 5 Sur 13 Sur 0 1019.6 -- 51
2020-11-25 08:00:00 18.5 6 Sur 14 Sur 0 1020 -- 63
2020-11-25 07:00:00 17.8 6 Sur 13 Sur 0 1019.8 -- 58
2020-11-25 06:00:00 18.1 8 Sur 12 Sudeste 0 1019.2 -- 57
2020-11-25 05:00:00 18.6 6 Sur 12 Sur 0 1019 -- 64
2020-11-25 04:00:00 18.4 7 Sur 13 Sur 0 1019.4 -- 57
2020-11-25 03:00:00 18.2 6 Sur 12 Sur 0 1019.6 -- 53
2020-11-25 02:00:00 18.7 6 Sur 13 Sur 0 1019.7 -- 62
2020-11-25 01:00:00 18.9 8 Sur 13 Sur 0 1020.3 -- 65
2020-11-25 00:00:00 19.1 6 Sur 12 Sur 0 1020.3 -- 63
2020-11-24 23:00:00 19.2 6 Sur 10 Sur 0 1020.4 -- 59
2020-11-24 22:00:00 20.2 5 Sur 11 Sur 0 1020.3 -- 45
2020-11-24 21:00:00 20.3 8 Sur 13 Sur 0 1019.9 -- 44
2020-11-24 20:00:00 20.7 6 Sur 12 Sudeste 0 1019.6 -- 56
2020-11-24 19:00:00 21.5 5 Sur 8 Sur 0 1019.3 -- 65
2020-11-24 18:00:00 23 4 Este 8 Este 0 1018.5 -- 62
2020-11-24 17:00:00 24.8 5 Este 9 Este 0 1017.7 -- 53
2020-11-24 16:00:00 24.8 5 Este 9 Nordeste 0 1017.4 -- 50
2020-11-24 15:00:00 24.4 0 Calma 5 Noroeste 0 1017.7 -- 51
2020-11-24 14:00:00 24.1 2 Noroeste 7 Noroeste 0 1018.1 -- 50
2020-11-24 13:00:00 24.2 4 Noroeste 9 Noroeste 0 1018.7 -- 44
2020-11-24 12:00:00 23.9 5 Oeste 10 Sudoeste 0 1019.6 -- 45
2020-11-24 11:00:00 22.9 4 Oeste 9 Sudoeste 0 1019.9 -- 52
2020-11-24 10:00:00 23 0 Calma 9 Sur 0 1019.4 -- 42
2020-11-24 09:00:00 20.7 4 Sur 9 Sudeste 0 1019.6 -- 41
2020-11-24 08:00:00 20.4 5 Sur 12 Sudeste 0 1019 -- 41
2020-11-24 07:00:00 19.8 4 Sur 11 Sur 0 1018.8 -- 42
2020-11-24 06:00:00 20 6 Sur 14 Sur 0 1018.3 -- 42
2020-11-24 05:00:00 19.9 8 Sur 16 Sudeste 0 1018.5 -- 42
2020-11-24 04:00:00 20 6 Sur 14 Sur 0 1018.8 -- 43
2020-11-24 03:00:00 20.3 9 Sur 17 Sur 0 1018.6 -- 43
2020-11-24 02:00:00 20.4 10 Sur 15 Sur 0 1018.9 -- 46
2020-11-24 01:00:00 20.3 9 Sur 16 Sur 0 1019.2 -- 46
2020-11-24 00:00:00 20.3 8 Sur 15 Sur 0 1019.4 -- 46
2020-11-23 23:00:00 20.4 8 Sur 14 Sur 0 1019.6 -- 47
2020-11-23 22:00:00 20.6 7 Sur 12 Sur 0 1019.3 -- 48
2020-11-23 21:00:00 21 5 Sur 11 Sudeste 0 1018.9 -- 49
2020-11-23 20:00:00 21.6 6 Sur 10 Sur 0 1018.2 -- 50
2020-11-23 19:00:00 22.8 0 Calma 8 Sudoeste 0 1017.3 -- 52
2020-11-23 18:00:00 24 2 Oeste 6 Sudoeste 0 1016.7 -- 54
2020-11-23 17:00:00 25.8 0 Calma 9 Oeste 0 1016 -- 59
2020-11-23 16:00:00 24.7 6 Noroeste 11 Noroeste 0 1016.4 -- 55
2020-11-23 15:00:00 24 6 Noroeste 12 Noroeste 0 1016.5 -- 63
2020-11-23 14:00:00 24.2 3 Noroeste 7 Noroeste 0 1016.6 -- 64
2020-11-23 13:00:00 24.7 3 Norte 8 Norte 0 1017.4 -- 53
2020-11-23 12:00:00 25.3 0 Calma 7 Oeste 0 1018.2 -- 49
2020-11-23 11:00:00 23.8 3 Nordeste 6 Sudeste 0 1018.5 -- 49
2020-11-23 10:00:00 22.4 2 Sur 6 Sur 0 1018.6 -- 51
2020-11-23 09:00:00 20.4 5 Sur 9 Sur 0 1018.1 -- 46
2020-11-23 08:00:00 19.6 6 Sur 16 Sur 0 1017.4 -- 43
2020-11-23 07:00:00 19.5 6 Sur 12 Sur 0 1016.8 -- 46
2020-11-23 06:00:00 19.2 6 Sur 11 Sur 0 1016.5 -- 48
2020-11-23 05:00:00 19.4 7 Sur 14 Sur 0 1016.7 -- 48
2020-11-23 04:00:00 19.8 9 Sur 14 Sur 0 1016.9 -- 44
2020-11-23 03:00:00 19.9 6 Sur 12 Sudeste 0 1016.8 -- 45
2020-11-23 02:00:00 20.5 5 Sur 12 Sur 0 1016.6 -- 45
2020-11-23 01:00:00 20.5 5 Sur 13 Sur 0 1017.1 -- 45
2020-11-23 00:00:00 20.9 8 Sur 12 Sur 0 1017.4 -- 46
2020-11-22 23:00:00 21 4 Sur 9 Sur 0 1017.5 -- 44
2020-11-22 22:00:00 21.1 6 Sur 12 Sur 0 1017.4 -- 44
2020-11-22 21:00:00 21.7 4 Sur 9 Sur 0 1017.3 -- 43
2020-11-22 20:00:00 22.8 4 Sur 8 Sur 0 1016.9 -- 41
2020-11-22 19:00:00 23.1 3 Sur 6 Sudoeste 0 1016.2 -- 47
2020-11-22 18:00:00 23.6 4 Sudoeste 8 Oeste 0 1015.9 -- 57
2020-11-22 17:00:00 24 3 Norte 8 Noroeste 0 1015.5 -- 57
2020-11-22 16:00:00 24.8 3 Norte 10 Noroeste 0 1014.9 -- 52
2020-11-22 15:00:00 25.8 3 Nordeste 6 Norte 0 1014.8 -- 49
2020-11-22 14:00:00 26.4 3 Nordeste 7 Noroeste 0 1014.8 -- 48
2020-11-22 13:00:00 24.6 5 Noroeste 10 Oeste 0 1015.5 -- 50
2020-11-22 12:00:00 23.6 7 Noroeste 10 Noroeste 0 1016.3 -- 50
2020-11-22 11:00:00 24.2 0 Calma 6 Nordeste 0 1016.7 -- 42
2020-11-22 10:00:00 23.6 3 Oeste 8 Sur 0 1016.5 -- 38
2020-11-22 09:00:00 21.4 5 Sur 10 Sur 0 1016.4 -- 41
2020-11-22 08:00:00 19.9 5 Sur 11 Sur 0 1016.1 -- 41
2020-11-22 07:00:00 19.7 6 Sur 14 Sudeste 0 1016 -- 43
2020-11-22 06:00:00 19.8 6 Sur 14 Sur 0 1015.7 -- 44
2020-11-22 05:00:00 19.6 5 Sur 12 Sur 0 1015.2 -- 50
2020-11-22 04:00:00 19.5 6 Sur 15 Sur 0 1015.6 -- 54
2020-11-22 03:00:00 19.8 6 Sur 17 Sur 0 1015.5 -- 57
2020-11-22 02:00:00 20.3 5 Sur 14 Sur 0 1015.5 -- 61
2020-11-22 01:00:00 21 5 Sudoeste 10 Sur 0 1015.3 -- 65
2020-11-22 00:00:00 21.6 5 Sudoeste 12 Sudoeste 0 1015.2 -- 61
2020-11-21 23:00:00 21 4 Sudeste 12 Sudeste 0 1015.3 -- 63
2020-11-21 22:00:00 21.7 4 Sudoeste 14 Sudeste 0 1015.4 -- 61
2020-11-21 21:00:00 21.3 5 Sur 14 Sur 0 1015.3 -- 59
2020-11-21 20:00:00 21.6 6 Sur 13 Sudeste 0 1015.4 -- 62
2020-11-21 19:00:00 22.5 3 Sur 6 Sudoeste 0 1015.1 -- 71
2020-11-21 18:00:00 23.6 0 Calma 6 Noroeste 0 1014.4 -- 67
2020-11-21 17:00:00 23.9 5 Noroeste 10 Noroeste 0 1013.9 -- 64
2020-11-21 16:00:00 24.5 4 Noroeste 15 Noroeste 0 1013.6 -- 65
2020-11-21 15:00:00 24.4 6 Oeste 14 Noroeste 0 1013.3 -- 60
2020-11-21 14:00:00 24.3 6 Noroeste 11 Noroeste 0 1013.5 -- 54
2020-11-21 13:00:00 24.5 3 Noroeste 11 Noroeste 0 1014.6 -- 53
2020-11-21 12:00:00 23.7 5 Nordeste 8 Norte 0 1015.4 -- 62
2020-11-21 11:00:00 24.9 2 Nordeste 6 Nordeste 0 1016.2 -- 56
2020-11-21 10:00:00 23.3 2 Oeste 5 Oeste 0 1016.3 -- 51
2020-11-21 09:00:00 22 0 Calma 12 Sur 0 1015.9 -- 45
2020-11-21 08:00:00 20.4 6 Sur 13 Sur 0 1015.5 -- 44
2020-11-21 07:00:00 19.6 6 Sudeste 13 Sudeste 0 1015.2 -- 49
2020-11-21 06:00:00 19.3 7 Sur 14 Sur 0 1014.9 -- 60
2020-11-21 05:00:00 19.1 6 Sur 14 Sur 0 1014.8 -- 62
2020-11-21 04:00:00 19.1 6 Sur 18 Sur 0 1015.1 -- 62
2020-11-21 03:00:00 19.6 6 Sur 14 Sur 0 1015.2 -- 59
2020-11-21 02:00:00 19.6 6 Sur 16 Sudeste 0 1015.6 -- 57
2020-11-21 01:00:00 19.8 4 Sur 14 Sur 0 1016.1 -- 58
2020-11-21 00:00:00 20.1 5 Sur 13 Sur 0 1016.5 -- 61
2020-11-20 23:00:00 20.2 4 Sur 9 Sur 0 1016.9 -- 60
2020-11-20 22:00:00 20.9 6 Sur 12 Sur 0 1016.8 -- 59
2020-11-20 21:00:00 20.9 3 Sur 9 Sur 0 1016.4 -- 67
2020-11-20 20:00:00 21.1 5 Sur 9 Sur 0 1016.3 -- 71
2020-11-20 19:00:00 22.3 0 Calma 5 Sur 0 1015.4 -- 82
2020-11-20 18:00:00 22.8 0 Calma 9 Oeste 0 1015 -- 81
2020-11-20 17:00:00 22.9 6 Noroeste 12 Noroeste 0 1014.6 -- 82
2020-11-20 16:00:00 23.5 4 Noroeste 13 Noroeste 0 1014.3 -- 79
2020-11-20 15:00:00 23.4 7 Oeste 19 Noroeste 0 1014 -- 77
2020-11-20 14:00:00 23.2 8 Oeste 15 Noroeste 0 1014.5 -- 77
2020-11-20 13:00:00 23 7 Oeste 18 Oeste 0 1015.2 -- 78
2020-11-20 12:00:00 22.7 9 Oeste 19 Oeste 0 1016.1 -- 78
2020-11-20 11:00:00 22.8 7 Oeste 18 Sudoeste 0 1017 -- 77
2020-11-20 10:00:00 21.9 4 Oeste 8 Sudoeste 0 1017.1 -- 79
2020-11-20 09:00:00 20.7 3 Sur 15 Sur 0 1016.5 -- 76
2020-11-20 08:00:00 18.5 5 Sur 20 Sudeste 0 1016.6 -- 78
2020-11-20 07:00:00 18.8 4 Sur 15 Sur 0 1016 -- 83
2020-11-20 06:00:00 18.8 6 Sur 13 Sur 0 1015.8 -- 80
2020-11-20 05:00:00 18.9 6 Sur 18 Sur 0 1016 -- 80
2020-11-20 04:00:00 19.1 5 Sur 11 Sur 0 1015.8 -- 82
2020-11-20 03:00:00 19.8 4 Sur 9 Sudoeste 0 1016.6 -- 80
2020-11-20 02:00:00 19.4 5 Sur 10 Sur 0 1016.7 -- 75
2020-11-20 01:00:00 19.9 4 Sur 11 Sudeste 0 1017.2 -- 76
2020-11-20 00:00:00 20 6 Sur 12 Sudeste 0 1018.2 -- 76
2020-11-19 23:00:00 20.4 5 Sur 11 Sur 0 1018.6 -- 75
2020-11-19 22:00:00 20.8 5 Sur 10 Sudeste 0 1018.5 -- 74
2020-11-19 21:00:00 21.6 0 Calma 7 Sudeste 0 1017.6 -- 75
2020-11-19 20:00:00 22.1 4 Sur 7 Sur 0 1017.6 -- 79
2020-11-19 19:00:00 22.4 4 Sudoeste 13 Sudoeste 0 1016.6 -- 77
2020-11-19 18:00:00 22.8 5 Sudoeste 18 Oeste 0 1016.3 -- 75
2020-11-19 17:00:00 23.4 9 Oeste 19 Sudoeste 0 1016.1 -- 70
2020-11-19 16:00:00 24.1 8 Sudoeste 17 Sudoeste 0 1015.8 -- 67
2020-11-19 15:00:00 24.1 4 Norte 17 Norte 0 1016 -- 67
2020-11-19 14:00:00 25 15 Nordeste 27 Nordeste 0 1016.7 -- 67
2020-11-19 13:00:00 25.2 9 Nordeste 35 Nordeste 0 1017.5 -- 65
2020-11-19 12:00:00 23.6 28 Nordeste 36 Nordeste 0 1019.1 -- 74
2020-11-19 11:00:00 23.7 18 Nordeste 25 Nordeste 0 1019.5 -- 73
2020-11-19 10:00:00 23.6 9 Nordeste 17 Nordeste 0 1020 -- 73
2020-11-19 09:00:00 22.1 13 Este 21 Nordeste 0 1020.6 -- 84
2020-11-19 08:00:00 20.7 4 Este 13 Nordeste 0 1020.7 -- 78
2020-11-19 07:00:00 20.1 6 Sur 13 Sur 0 1020.7 -- 75
2020-11-19 06:00:00 19.7 5 Sur 11 Sur 0 1019.8 -- 77
2020-11-19 05:00:00 19.8 7 Sur 13 Sur 0 1020.2 -- 77
2020-11-19 04:00:00 20.8 4 Sudeste 10 Sudeste 0 1020.1 -- 78
2020-11-19 03:00:00 20.4 5 Sur 12 Sur 0 1020.6 -- 76
2020-11-19 02:00:00 20.6 5 Sur 12 Sur 0 1020.7 -- 76
2020-11-19 01:00:00 20.7 6 Sur 12 Sur 0 1021.4 -- 75
2020-11-19 00:00:00 20.7 3 Sur 12 Sur 0 1021.8 -- 79
2020-11-18 23:00:00 21.7 2 Sudeste 19 Nordeste 0 1022 -- 88
2020-11-18 22:00:00 22 13 Nordeste 18 Nordeste 0 1022.1 -- 91
2020-11-18 21:00:00 22.4 11 Este 16 Nordeste 0 1021.7 -- 91
2020-11-18 20:00:00 22.4 12 Nordeste 16 Nordeste 0 1021.2 -- 90
2020-11-18 19:00:00 22.7 8 Nordeste 17 Nordeste 0 1021.1 -- 90
2020-11-18 18:00:00 23 11 Nordeste 18 Nordeste 0 1020.7 -- 90
2020-11-18 17:00:00 23.5 11 Nordeste 15 Nordeste 0 1020.1 -- 89
2020-11-18 16:00:00 23.8 8 Nordeste 12 Norte 0 1019.8 -- 88
2020-11-18 15:00:00 23.6 5 Norte 10 Norte 0 1020 -- 89
2020-11-18 14:00:00 23.5 5 Norte 11 Nordeste 0 1020.1 -- 90
2020-11-18 13:00:00 23.4 5 Norte 14 Oeste 0 1020.7 -- 91
2020-11-18 12:00:00 24.2 7 Oeste 14 Noroeste 0 1021 -- 78
2020-11-18 11:00:00 24.2 2 Norte 6 Nordeste 0 1020.2 -- 71
2020-11-18 10:00:00 24.6 4 Noroeste 9 Sur 0 1020 -- 55
2020-11-18 09:00:00 23.6 5 Sudeste 13 Sur 0 1020 -- 52
2020-11-18 08:00:00 21.7 5 Sur 9 Sur 0 1019.6 -- 54
2020-11-18 07:00:00 23.1 8 Sudeste 15 Sudeste 0 1018.7 -- 35
2020-11-18 06:00:00 23.4 5 Sudeste 14 Sur 0 1018.7 -- 35
2020-11-18 05:00:00 22.7 6 Sur 13 Sur 0 1018.4 -- 35
2020-11-18 04:00:00 23.5 9 Sur 17 Sudeste 0 1018.3 -- 34
2020-11-18 03:00:00 22.7 9 Sur 16 Sudeste 0 1018.9 -- 36
2020-11-18 02:00:00 23.2 5 Sur 11 Noroeste 0 1019.4 -- 41
2020-11-18 01:00:00 23.4 5 Sur 16 Sur 0 1019 -- 35
2020-11-18 00:00:00 23.7 6 Sur 13 Sur 0 1019 -- 34
2020-11-17 23:00:00 23.5 6 Sur 13 Sur 0 1019.1 -- 35
2020-11-17 22:00:00 23.4 6 Sur 15 Sur 0 1019.4 -- 36
2020-11-17 21:00:00 23.8 6 Sur 11 Sudeste 0 1018.9 -- 36
2020-11-17 20:00:00 24 4 Sur 10 Sudeste 0 1018.7 -- 39
2020-11-17 19:00:00 24.6 3 Sur 4 Sur 0 1017.9 -- 46
2020-11-17 18:00:00 26.1 2 Sudoeste 11 Oeste 0 1017.3 -- 45
2020-11-17 17:00:00 27.3 3 Oeste 10 Noroeste 0 1016.3 -- 45
2020-11-17 16:00:00 26.5 4 Oeste 10 Noroeste 0 1016.3 -- 56
2020-11-17 15:00:00 25.5 4 Noroeste 10 Noroeste 0 1016.4 -- 70
2020-11-17 14:00:00 26.3 2 Norte 11 Nordeste 0 1016.7 -- 70
2020-11-17 13:00:00 26.8 5 Oeste 12 Sudoeste 0 1017.4 -- 39
2020-11-17 12:00:00 25.5 0 Calma 12 Oeste 0 1018.2 -- 75
2020-11-17 11:00:00 24.7 6 Oeste 12 Oeste 0 1018.5 -- 67
2020-11-17 10:00:00 24 5 Oeste 10 Nordeste 0 1018.6 -- 72
2020-11-17 09:00:00 23.3 3 Sudoeste 9 Sur 0 1018.4 -- 47
2020-11-17 08:00:00 21.4 3 Sudoeste 12 Sudoeste 0 1018.1 -- 49
2020-11-17 07:00:00 21.1 4 Sudoeste 11 Sudeste 0 1017.9 -- 72
2020-11-17 06:00:00 21 3 Sudeste 11 Sur 0 1017.8 -- 80
2020-11-17 05:00:00 21.1 0 Calma 13 Sur 0 1017.7 -- 74
2020-11-17 04:00:00 21.5 0 Calma 11 Sudeste 0 1017.5 -- 79
2020-11-17 03:00:00 21 2 Sur 13 Sur 0 1017.5 -- 59
2020-11-17 02:00:00 21.4 3 Sur 14 Sudeste 0 1018.1 -- 87
2020-11-17 01:00:00 21.5 4 Sudoeste 8 Sur 0 1018.4 -- 88
2020-11-17 00:00:00 21.5 2 Sur 10 Oeste 0 1018.7 -- 85
2020-11-16 23:00:00 21.9 2 Sudoeste 15 Sur 0 1019 -- 95
2020-11-16 22:00:00 21.8 4 Sudoeste 9 Sudoeste 0 1018.9 -- 95
2020-11-16 21:00:00 22.2 0 Calma 7 Este 0 1018.6 -- 96
2020-11-16 20:00:00 22.6 0 Calma 17 Nordeste 0 1018.3 -- 96
2020-11-16 19:00:00 22.8 7 Nordeste 15 Nordeste 0 1017.7 -- 95
2020-11-16 18:00:00 23.5 8 Nordeste 17 Nordeste 0 1017.5 -- 90
2020-11-16 17:00:00 24.1 10 Nordeste 13 Nordeste 0 1017.2 -- 86
2020-11-16 16:00:00 24.7 8 Nordeste 14 Nordeste 0 1016.9 -- 81
2020-11-16 15:00:00 25.4 10 Nordeste 16 Nordeste 0 1016.9 -- 79
2020-11-16 14:00:00 24.1 5 Nordeste 9 Norte 0 1017.5 -- 86
2020-11-16 13:00:00 23.2 4 Norte 10 Nordeste 0 1018 -- 88
2020-11-16 12:00:00 23.8 7 Nordeste 9 Nordeste 0 1018.6 -- 77
2020-11-16 11:00:00 23.4 3 Nordeste 7 Norte 0 1018.9 -- 76
2020-11-16 10:00:00 23.3 2 Norte 7 Noroeste 0 1018.9 -- 67
2020-11-16 09:00:00 22.8 0 Calma 7 Sur 0 1018.6 -- 72
2020-11-16 08:00:00 20.8 0 Calma 11 Sudoeste 0 1018.4 -- 76
2020-11-16 07:00:00 20.8 3 Sur 14 Sur 0 1017.5 -- 76
2020-11-16 06:00:00 20.5 3 Sur 12 Sudeste 0 1017.2 -- 78
2020-11-16 05:00:00 20.6 3 Sur 14 Sudeste 0 1017.1 -- 79
2020-11-16 04:00:00 20.5 3 Sur 14 Sur 0 1017.2 -- 78
2020-11-16 03:00:00 20.5 4 Sur 11 Sur 0 1017.3 -- 82
2020-11-16 02:00:00 20.7 5 Sur 11 Sur 0 1017.4 -- 83
2020-11-16 01:00:00 21.2 3 Sudoeste 9 Sur 0 1017.5 -- 88
2020-11-16 00:00:00 21.5 3 Sur 10 Nordeste 0 1017.9 -- 91
2020-11-15 23:00:00 21.9 3 Sur 11 Sudeste 0 1017.7 -- 94
2020-11-15 22:00:00 22.2 2 Sur 18 Nordeste 0 1017.6 -- 95
2020-11-15 21:00:00 22.8 6 Nordeste 18 Nordeste 0 1017.1 -- 95
2020-11-15 20:00:00 22.7 2 Este 8 Sudeste 0 1016.7 -- 92
2020-11-15 19:00:00 22.9 0 Calma 17 Nordeste 0 1015.7 -- 92
2020-11-15 18:00:00 23.6 7 Nordeste 14 Este 0 1015.1 -- 86
2020-11-15 17:00:00 24.2 9 Nordeste 13 Nordeste 0 1014.2 -- 80
2020-11-15 16:00:00 25.1 11 Nordeste 17 Nordeste 0 1014.2 -- 78
2020-11-15 15:00:00 26.6 11 Nordeste 15 Nordeste 0 1013.6 -- 71
2020-11-15 14:00:00 25.8 8 Nordeste 14 Nordeste 0 1014 -- 78
2020-11-15 13:00:00 24.5 10 Nordeste 14 Nordeste 0 1014.6 -- 79
2020-11-15 12:00:00 24.8 13 Nordeste 17 Nordeste 0 1014.6 -- 76
2020-11-15 11:00:00 24.6 13 Nordeste 17 Nordeste 0 1015.1 -- 76
2020-11-15 10:00:00 24.2 5 Norte 9 Nordeste 0 1014.5 -- 66
2020-11-15 09:00:00 24.3 0 Calma 11 Sur 0 1013.9 -- 60
2020-11-15 08:00:00 20.8 6 Sudeste 10 Sudeste 0 1014.2 -- 71
2020-11-15 07:00:00 20.5 4 Sur 16 Sudeste 0 1013.3 -- 74
2020-11-15 06:00:00 20.4 5 Sur 15 Sur 0 1012.9 -- 75
2020-11-15 05:00:00 21.1 4 Sudeste 13 Sur 0 1012.8 -- 78
2020-11-15 04:00:00 20.9 4 Sur 16 Sur 0 1012.3 -- 82
2020-11-15 03:00:00 20.8 4 Sur 13 Sur 0 1012.7 -- 83
2020-11-15 02:00:00 20.7 4 Sur 11 Sur 0 1013.6 -- 83
2020-11-15 01:00:00 21.3 4 Sudoeste 12 Sur 0 1013.7 -- 83
2020-11-15 00:00:00 21.4 4 Sur 14 Sur 0 1013.2 -- 82
2020-11-14 23:00:00 22.1 7 Este 18 Nordeste 0 1013.9 -- 90
2020-11-14 22:00:00 22.2 3 Sur 13 Sudoeste 0 1013.2 -- 84
2020-11-14 21:00:00 22.6 6 Sudoeste 32 Nordeste 0 1013.4 -- 83
2020-11-14 20:00:00 23.1 10 Nordeste 25 Este 0 1012.4 -- 87
2020-11-14 19:00:00 23.2 12 Nordeste 21 Nordeste 0 1012 -- 88
2020-11-14 18:00:00 24.1 3 Este 10 Nordeste 0 1011.9 -- 78
2020-11-14 17:00:00 25.3 6 Este 20 Nordeste 0 1011 -- 71
2020-11-14 16:00:00 25.2 12 Este 19 Este 0 1011.2 -- 76
2020-11-14 15:00:00 25.6 7 Este 20 Nordeste 0 1011.4 -- 78
2020-11-14 14:00:00 25.2 13 Nordeste 21 Nordeste 0 1010.6 -- 81
2020-11-14 13:00:00 26.4 11 Nordeste 20 Este 0 1011.6 -- 66
2020-11-14 12:00:00 25.1 2 Nordeste 17 Nordeste 0 1013.2 -- 64
2020-11-14 11:00:00 23.3 0 Calma 17 Nordeste 0 1013.8 -- 85
2020-11-14 10:00:00 21.8 3 Sudeste 12 Este 0 1013.7 -- 84
2020-11-14 09:00:00 21.6 0 Calma 19 Sudoeste 0 1013.3 -- 80
2020-11-14 08:00:00 21.2 3 Sudoeste 18 Sur 0 1012 -- 60
2020-11-14 07:00:00 20.9 3 Sur 14 Sur 0 1011.9 -- 64
2020-11-14 06:00:00 20.7 0 Calma 14 Sur 0 1011.5 -- 65
2020-11-14 05:00:00 21 3 Sur 15 Sudoeste 0 1011.6 -- 69
2020-11-14 04:00:00 21.5 4 Sudoeste 14 Sur 0 1011.8 -- 58
2020-11-14 03:00:00 21.6 3 Sudoeste 21 Oeste 0 1012.2 -- 59
2020-11-14 02:00:00 21.2 4 Sur 14 Sudoeste 0 1012.4 -- 61
2020-11-14 01:00:00 20.5 5 Sur 12 Sudeste 0 1012.8 -- 64
2020-11-14 00:00:00 20.7 5 Sudeste 13 Sudeste 0 1013.1 -- 68
2020-11-13 23:00:00 21.1 4 Sur 11 Sur 0 1013.8 -- 76
2020-11-13 22:00:00 21.8 5 Sudeste 12 Sudeste 0 1013.9 -- 81
2020-11-13 21:00:00 21.9 3 Sur 13 Sudoeste 0 1013.7 -- 87
2020-11-13 20:00:00 22 2 Sur 14 Sudoeste 0 1012.6 -- 92
2020-11-13 19:00:00 22.4 0 Calma 16 Sudeste 0 1012.3 -- 94
2020-11-13 18:00:00 22.5 2 Sudeste 18 Este 0 1012.3 -- 93
2020-11-13 17:00:00 22.7 8 Este 23 Nordeste 0 1012.7 -- 93
2020-11-13 16:00:00 23 13 Este 20 Este 0 1012.6 -- 90
2020-11-13 15:00:00 23.4 10 Este 19 Nordeste 0 1012.3 -- 85
2020-11-13 14:00:00 23.1 19 Nordeste 28 Nordeste 0 1011.8 -- 87
2020-11-13 13:00:00 23.5 4 Nordeste 14 Oeste 0 1013.6 -- 92
2020-11-13 12:00:00 22.4 10 Oeste 29 Oeste 0 1014.2 -- 95
2020-11-13 11:00:00 22.6 4 Nordeste 13 Este 0 1013.6 -- 92
2020-11-13 10:00:00 22.2 5 Sudoeste 10 Oeste 0 1014.9 -- 86
2020-11-13 09:00:00 21.6 3 Sudoeste 11 Sudeste 0 1014.5 -- 85
2020-11-13 08:00:00 20.8 4 Sur 8 Sur 0 1014.8 -- 88
2020-11-13 07:00:00 21.5 2 Sudoeste 10 Sudeste 0 1015.5 -- 89
2020-11-13 06:00:00 21 5 Sur 8 Sur 0 1015.4 -- 89
2020-11-13 05:00:00 21.2 2 Sudoeste 6 Sudeste 0 1013.9 -- 92
2020-11-13 04:00:00 20.8 2 Sur 6 Sur 0 1013.3 -- 90
2020-11-13 03:00:00 20.8 3 Sur 7 Sudoeste 0 1014 -- 92
2020-11-13 02:00:00 20.7 3 Sur 9 Sur 0 1014.1 -- 90
2020-11-13 01:00:00 20.7 3 Sudeste 10 Sudeste 0 1015.1 -- 86
2020-11-13 00:00:00 21 4 Sur 13 Este 0 1015.1 -- 92
2020-11-12 23:00:00 21.5 6 Este 9 Este 0 1015.6 -- 92
2020-11-12 22:00:00 21.3 5 Sudeste 12 Este 0 1014.9 -- 93
2020-11-12 21:00:00 21.5 2 Sudeste 9 Este 0 1015.2 -- 91
2020-11-12 20:00:00 21.8 2 Sudeste 8 Este 0 1015.3 -- 90
2020-11-12 19:00:00 22 3 Nordeste 7 Noroeste 0 1015 -- 89
2020-11-12 18:00:00 22.3 0 Calma 11 Noroeste 0 1014.8 -- 88
2020-11-12 17:00:00 22.4 4 Noroeste 12 Noroeste 0 1014.3 -- 86
2020-11-12 16:00:00 22.5 8 Oeste 14 Noroeste 0 1013.9 -- 85
2020-11-12 15:00:00 22.6 5 Oeste 14 Sudoeste 0 1013.5 -- 83
2020-11-12 14:00:00 22.8 9 Oeste 18 Oeste 0 1014 -- 82
2020-11-12 13:00:00 22.8 9 Oeste 18 Sudoeste 0 1014.5 -- 82
2020-11-12 12:00:00 22.5 10 Oeste 21 Oeste 0 1014.7 -- 80
2020-11-12 11:00:00 22.2 7 Sudoeste 15 Sudoeste 0 1015.5 -- 81
2020-11-12 10:00:00 21.5 4 Sudoeste 10 Sudoeste 0 1015.5 -- 83
2020-11-12 09:00:00 20.8 0 Calma 8 Sur 0 1015.3 -- 83
2020-11-12 08:00:00 19.7 5 Sur 10 Sudeste 0 1015.3 -- 84
2020-11-12 07:00:00 19.6 5 Sur 8 Sur 0 1014.8 -- 82
2020-11-12 06:00:00 19.5 4 Sur 10 Sur 0 1014.2 -- 82
2020-11-12 05:00:00 19.9 4 Sur 8 Sur 0 1014.4 -- 82
2020-11-12 04:00:00 20.1 4 Sur 12 Sudeste 0 1014.4 -- 82
2020-11-12 03:00:00 20.7 3 Sur 7 Oeste 0 1015.5 -- 82
2020-11-12 02:00:00 20.9 6 Nordeste 21 Noroeste 0 1014.5 -- 82
2020-11-12 01:00:00 20.7 0 Calma 9 Sudeste 0 1014.9 -- 82
2020-11-12 00:00:00 21 3 Sudoeste 18 Nordeste 0 1017.1 -- 81
2020-11-11 23:00:00 21.1 14 Nordeste 23 Este 0 1016.9 -- 82
2020-11-11 22:00:00 21.2 15 Nordeste 21 Nordeste 0 1017 -- 83
2020-11-11 21:00:00 21.4 15 Nordeste 21 Este 0 1016.9 -- 82
2020-11-11 20:00:00 21.5 13 Nordeste 21 Nordeste 0 1016.5 -- 81
2020-11-11 19:00:00 21.7 17 Nordeste 22 Nordeste 0 1015.9 -- 80
2020-11-11 18:00:00 22 14 Nordeste 18 Nordeste 0 1015.2 -- 78
2020-11-11 17:00:00 22.8 10 Nordeste 16 Norte 0 1014.8 -- 73
2020-11-11 16:00:00 23.5 9 Nordeste 14 Nordeste 0 1013.8 -- 71
2020-11-11 15:00:00 23.8 6 Nordeste 9 Nordeste 0 1014.3 -- 70
2020-11-11 14:00:00 22.7 5 Noroeste 10 Noroeste 0 1014.6 -- 71
2020-11-11 13:00:00 22.1 5 Noroeste 9 Oeste 0 1015.3 -- 71
2020-11-11 12:00:00 22.2 5 Norte 13 Norte 0 1015.4 -- 70
2020-11-11 11:00:00 22.7 9 Nordeste 13 Nordeste 0 1015.7 -- 71
2020-11-11 10:00:00 21.7 4 Nordeste 8 Nordeste 0 1016.2 -- 72
2020-11-11 09:00:00 20.9 0 Calma 11 Sur 0 1016.3 -- 70
2020-11-11 08:00:00 18.8 3 Sur 10 Sur 0 1016.1 -- 77
2020-11-11 07:00:00 19.5 5 Sur 12 Sudoeste 0 1016.4 -- 78
2020-11-11 06:00:00 19.1 3 Sur 9 Sur 0 1014.9 -- 77
2020-11-11 05:00:00 19.1 6 Sudoeste 13 Sudeste 0 1015.1 -- 75
2020-11-11 04:00:00 17.9 7 Sur 12 Sur 0 1014.8 -- 73
2020-11-11 03:00:00 18.1 7 Sur 14 Sur 0 1015.5 -- 72
2020-11-11 02:00:00 18.4 8 Sur 13 Sur 0 1016 -- 72
2020-11-11 01:00:00 18.7 5 Sur 13 Sur 0 1016.7 -- 71
2020-11-11 00:00:00 19.1 6 Sur 12 Sur 0 1017.1 -- 71
2020-11-10 23:00:00 19.6 8 Sur 14 Sudeste 0 1017.1 -- 71
2020-11-10 22:00:00 19.9 8 Sur 12 Sur 0 1017 -- 70
2020-11-10 21:00:00 20.7 4 Sur 12 Sur 0 1016.6 -- 68
2020-11-10 20:00:00 21.4 3 Sur 7 Sudoeste 0 1016.5 -- 68
2020-11-10 19:00:00 22.1 2 Sudoeste 12 Oeste 0 1015.4 -- 67
2020-11-10 18:00:00 22.5 6 Oeste 12 Sudoeste 0 1014.8 -- 64
2020-11-10 17:00:00 23.1 5 Oeste 13 Sudoeste 0 1014.4 -- 64
2020-11-10 16:00:00 23.7 6 Oeste 15 Sudoeste 0 1014.3 -- 60
2020-11-10 15:00:00 23.4 6 Oeste 12 Sudoeste 0 1014.6 -- 63
2020-11-10 14:00:00 25.5 5 Nordeste 9 Nordeste 0 1014.5 -- 57
2020-11-10 13:00:00 23.3 6 Nordeste 9 Noroeste 0 1015.5 -- 62
2020-11-10 12:00:00 22.8 3 Norte 10 Noroeste 0 1016.8 -- 64
2020-11-10 11:00:00 22.2 6 Noroeste 14 Oeste 0 1017.4 -- 66
2020-11-10 10:00:00 21.7 3 Oeste 10 Sudoeste 0 1017.5 -- 64
2020-11-10 09:00:00 20.7 4 Sur 12 Sur 0 1017.6 -- 66
2020-11-10 08:00:00 18.3 7 Sur 15 Sur 0 1017.9 -- 73
2020-11-10 07:00:00 18.4 8 Sur 17 Sur 0 1018.2 -- 73
2020-11-10 06:00:00 19.2 3 Sur 10 Sur 0 1017.6 -- 74
2020-11-10 05:00:00 19.5 3 Sudeste 10 Sudoeste 0 1017.1 -- 73
2020-11-10 04:00:00 19.2 3 Sur 13 Sur 0 1016.8 -- 73
2020-11-10 03:00:00 19 5 Sur 10 Sur 0 1016.7 -- 73
2020-11-10 02:00:00 19.3 6 Sur 17 Sur 0 1017.2 -- 68
2020-11-10 01:00:00 18.8 9 Sur 17 Sudeste 0 1018.1 -- 70
2020-11-10 00:00:00 18.7 6 Sur 12 Sudeste 0 1019.2 -- 71
2020-11-09 23:00:00 19.6 5 Sur 14 Sudoeste 0 1019.4 -- 72
2020-11-09 22:00:00 20 5 Sur 15 Sudoeste 0 1019.4 -- 72
2020-11-09 21:00:00 20.3 8 Sur 19 Norte 0 1019.2 -- 68
2020-11-09 20:00:00 21.3 9 Nordeste 34 Nordeste 0 1018.8 -- 80
2020-11-09 19:00:00 21.5 27 Nordeste 39 Nordeste 0 1018.4 -- 81
2020-11-09 18:00:00 21.7 31 Nordeste 41 Nordeste 0 1018.3 -- 79
2020-11-09 17:00:00 21.9 27 Nordeste 36 Nordeste 0 1017.9 -- 77
2020-11-09 16:00:00 22.5 28 Nordeste 36 Nordeste 0 1018 -- 75
2020-11-09 15:00:00 22.8 25 Nordeste 32 Nordeste 0 1018.2 -- 73
2020-11-09 14:00:00 22.7 22 Nordeste 28 Nordeste 0 1018.6 -- 74
2020-11-09 13:00:00 22.9 23 Nordeste 33 Nordeste 0 1019.3 -- 72
2020-11-09 12:00:00 23.8 19 Nordeste 29 Nordeste 0 1019.8 -- 67
2020-11-09 11:00:00 23.5 17 Nordeste 24 Este 0 1020.5 -- 67
2020-11-09 10:00:00 22.1 14 Nordeste 20 Nordeste 0 1020.5 -- 70
2020-11-09 09:00:00 21.3 4 Sudeste 12 Sudeste 0 1020.5 -- 64
2020-11-09 08:00:00 19 7 Sudeste 15 Sur 0 1020 -- 67
2020-11-09 07:00:00 17.8 6 Sur 14 Sur 0 1020.1 -- 71
2020-11-09 06:00:00 18.3 6 Sur 14 Sudeste 0 1019.7 -- 69
2020-11-09 05:00:00 18.8 5 Sur 14 Sudeste 0 1019.7 -- 69
2020-11-09 04:00:00 19.6 12 Nordeste 23 Nordeste 0 1020.1 -- 82
2020-11-09 03:00:00 18.5 7 Sur 14 Sur 0 1020.1 -- 64
2020-11-09 02:00:00 18.9 7 Sur 15 Sudeste 0 1020 -- 64
2020-11-09 01:00:00 18.7 7 Sur 14 Sur 0 1020.4 -- 64
2020-11-09 00:00:00 18.9 9 Sur 15 Sur 0 1020.5 -- 64
2020-11-08 23:00:00 19.5 6 Sur 11 Sur 0 1020.7 -- 65
2020-11-08 22:00:00 20.2 2 Sur 12 Sudeste 0 1020.6 -- 67
2020-11-08 21:00:00 20.4 6 Sur 12 Sudeste 0 1020.4 -- 68
2020-11-08 20:00:00 21 0 Calma 12 Nordeste 0 1019.8 -- 71
2020-11-08 19:00:00 21.3 5 Nordeste 9 Nordeste 0 1019.3 -- 69
2020-11-08 18:00:00 21.9 3 Este 8 Nordeste 0 1018.7 -- 66
2020-11-08 17:00:00 22.4 3 Nordeste 8 Nordeste 0 1018.6 -- 64
2020-11-08 16:00:00 22.4 3 Nordeste 7 Norte 0 1018.5 -- 64
2020-11-08 15:00:00 22.4 5 Nordeste 12 Nordeste 0 1018.6 -- 62
2020-11-08 14:00:00 24.6 6 Nordeste 10 Norte 0 1018.4 -- 59
2020-11-08 13:00:00 22.2 6 Norte 10 Norte 0 1019.4 -- 63
2020-11-08 12:00:00 22.8 6 Nordeste 10 Nordeste 0 1019.9 -- 63
2020-11-08 11:00:00 21.8 5 Norte 9 Norte 0 1020.4 -- 62
2020-11-08 10:00:00 22.6 3 Nordeste 7 Sudeste 0 1020.3 -- 60
2020-11-08 09:00:00 20.4 4 Sur 12 Sur 0 1020.6 -- 60
2020-11-08 08:00:00 18 6 Sur 11 Sudeste 0 1020.3 -- 67
2020-11-08 07:00:00 17.7 5 Sur 10 Sur 0 1019.9 -- 69
2020-11-08 06:00:00 17.7 8 Sur 12 Sur 0 1019.3 -- 68
2020-11-08 05:00:00 17.9 5 Sur 12 Sur 0 1019 -- 71
2020-11-08 04:00:00 18.1 6 Sur 10 Sudeste 0 1019.3 -- 73
2020-11-08 03:00:00 18.1 6 Sur 12 Sur 0 1019.3 -- 73
2020-11-08 02:00:00 18.7 5 Sur 10 Sur 0 1019.6 -- 74
2020-11-08 01:00:00 18.9 5 Sur 9 Sur 0 1019.6 -- 74
2020-11-08 00:00:00 18.7 6 Sur 12 Sur 0 1019.9 -- 73
2020-11-07 23:00:00 18.9 7 Sur 12 Sur 0 1019.7 -- 72
2020-11-07 22:00:00 19.2 5 Sur 10 Sur 0 1019.5 -- 71
2020-11-07 21:00:00 19.8 3 Sur 9 Sur 0 1019.3 -- 69
2020-11-07 20:00:00 20.5 4 Sur 7 Sudoeste 0 1018.7 -- 67
2020-11-07 19:00:00 21.6 0 Calma 6 Norte 0 1018 -- 64
2020-11-07 18:00:00 22.2 2 Norte 8 Norte 0 1017.4 -- 60
2020-11-07 17:00:00 22.3 4 Norte 10 Norte 0 1017.2 -- 59
2020-11-07 16:00:00 23 4 Norte 11 Norte 0 1016.7 -- 57
2020-11-07 15:00:00 23.2 5 Norte 9 Norte 0 1017 -- 55
2020-11-07 14:00:00 23.2 4 Norte 9 Norte 0 1017.2 -- 52
2020-11-07 13:00:00 22.9 4 Norte 9 Norte 0 1017.9 -- 52
2020-11-07 12:00:00 23.3 4 Nordeste 9 Nordeste 0 1018.1 -- 53
2020-11-07 11:00:00 23 6 Nordeste 10 Este 0 1018.5 -- 55
2020-11-07 10:00:00 22.1 3 Norte 7 Sudeste 0 1018.5 -- 50
2020-11-07 09:00:00 20.3 4 Sur 14 Sudeste 0 1018.4 -- 53
2020-11-07 08:00:00 17.5 8 Sur 14 Sur 0 1017.7 -- 56
2020-11-07 07:00:00 17.4 6 Sudeste 15 Sudeste 0 1016.9 -- 56
2020-11-07 06:00:00 17.4 8 Sudeste 16 Sur 0 1016.4 -- 54
2020-11-07 05:00:00 17.5 10 Sur 19 Sur 0 1016.1 -- 55
2020-11-07 04:00:00 17.6 11 Sur 18 Sudeste 0 1016 -- 58
2020-11-07 03:00:00 18 9 Sur 18 Sudeste 0 1015.6 -- 58
2020-11-07 02:00:00 18.2 8 Sur 17 Sur 0 1015.6 -- 58
2020-11-07 01:00:00 18.4 8 Sur 15 Sur 0 1015.3 -- 62
2020-11-07 00:00:00 18.7 8 Sur 15 Sudeste 0 1015.6 -- 65
2020-11-06 23:00:00 18.9 7 Sur 16 Sur 0 1015.6 -- 65
2020-11-06 22:00:00 19 8 Sur 17 Sudeste 0 1015.1 -- 64
2020-11-06 21:00:00 19.7 9 Sur 17 Sur 0 1014.5 -- 65
2020-11-06 20:00:00 20.3 7 Sur 14 Sur 0 1013.9 -- 65
2020-11-06 19:00:00 21.7 0 Calma 13 Sudoeste 0 1012.8 -- 65
2020-11-06 18:00:00 21.9 7 Oeste 17 Noroeste 0 1012.2 -- 64
2020-11-06 17:00:00 22.2 9 Noroeste 24 Oeste 0 1011.5 -- 65
2020-11-06 16:00:00 22.9 10 Oeste 24 Oeste 0 1011.2 -- 63
2020-11-06 15:00:00 22.6 6 Oeste 15 Sudoeste 0 1010.9 -- 64
2020-11-06 14:00:00 21.6 13 Noroeste 30 Oeste 0 1011.1 -- 72
2020-11-06 13:00:00 22.9 13 Oeste 36 Noroeste 0 1010.6 -- 63
2020-11-06 12:00:00 22.5 17 Oeste 37 Oeste 0 1010.6 -- 63
2020-11-06 11:00:00 22.6 9 Oeste 23 Sudoeste 0 1010.7 -- 61
2020-11-06 10:00:00 21.2 4 Sudoeste 26 Sudoeste 0 1010.6 3.7 74
2020-11-06 09:00:00 20.3 9 Oeste 41 Oeste 0 1009.7 -- 81
2020-11-06 08:00:00 20.6 5 Sudoeste 18 Este 0 1007.6 -- 67
2020-11-06 07:00:00 20.7 9 Oeste 24 Oeste 0 1006.9 -- 71
2020-11-06 06:00:00 19.5 5 Sudeste 14 Sur 0 1006.5 -- 64
2020-11-06 05:00:00 18.9 8 Sur 15 Sur 0 1006.5 -- 65
2020-11-06 04:00:00 19.5 4 Sur 18 Norte 0 1006.5 -- 64
2020-11-06 03:00:00 19.6 6 Sudeste 12 Sur 0 1006.5 -- 64
2020-11-06 02:00:00 18.3 5 Sur 17 Sudeste 0 1006.5 -- 66
2020-11-06 01:00:00 18.8 7 Sur 30 Oeste 0 1006.8 -- 72
2020-11-06 00:00:00 19.2 4 Sudoeste 17 Sur 0 1007.3 -- 64
2020-11-05 23:00:00 18.7 8 Sur 15 Sudeste 0 1007.3 -- 62
2020-11-05 22:00:00 18.7 9 Sur 14 Sur 0 1007.4 -- 61
2020-11-05 21:00:00 19 7 Sur 13 Sur 0 1007.3 -- 61
2020-11-05 20:00:00 19.7 4 Sudoeste 11 Oeste 0 1007 -- 68
2020-11-05 19:00:00 20.9 8 Sudoeste 22 Oeste 0 1006.4 -- 64
2020-11-05 18:00:00 21.2 10 Oeste 24 Noroeste 0 1006.2 -- 63
2020-11-05 17:00:00 21.8 4 Oeste 12 Sudoeste 0 1006 -- 62
2020-11-05 16:00:00 20.8 4 Oeste 11 Oeste 0 1005.9 -- 65
2020-11-05 15:00:00 21 6 Noroeste 11 Noroeste 0 1006.1 -- 64
2020-11-05 14:00:00 21 4 Oeste 11 Noroeste 0 1006.6 -- 67
2020-11-05 13:00:00 21.1 8 Noroeste 19 Noroeste 0 1007 -- 68
2020-11-05 12:00:00 20.5 9 Noroeste 19 Oeste 0 1008 -- 69
2020-11-05 11:00:00 21.8 2 Sur 19 Noroeste 0 1008.6 -- 60
2020-11-05 10:00:00 19.6 14 Noroeste 24 Noroeste 0 1009.4 -- 77
2020-11-05 09:00:00 19.2 5 Sur 14 Sur 0 1008.9 -- 63
2020-11-05 08:00:00 17.4 5 Sur 15 Sur 0 1009.1 -- 72
2020-11-05 07:00:00 17.1 6 Sur 12 Sur 0 1009.3 -- 75
2020-11-05 06:00:00 17.1 3 Sur 9 Sur 0 1009.3 -- 79
2020-11-05 05:00:00 17.6 5 Sur 11 Sur 0 1009.5 -- 81
2020-11-05 04:00:00 17.7 3 Sur 9 Sur 0 1010 -- 85
2020-11-05 03:00:00 17.9 3 Sur 17 Sur 0 1010.3 -- 86
2020-11-05 02:00:00 18 8 Sur 19 Sur 0 1011.5 -- 89
2020-11-05 01:00:00 17.6 8 Sur 19 Sur 0.1 1012.5 -- 92
2020-11-05 00:00:00 17.3 7 Sur 17 Sur 0.3 1013.2 -- 98
2020-11-04 23:00:00 17.5 8 Sur 16 Sur 0.2 1014.2 -- 98
2020-11-04 22:00:00 17.8 3 Sur 18 Sur 0.5 1014.5 -- 98
2020-11-04 21:00:00 18 5 Sur 27 Este 1.6 1014.7 -- 99
2020-11-04 20:00:00 18.6 5 Sur 15 Sur 0.3 1014.4 -- 96
2020-11-04 19:00:00 18.2 2 Sur 15 Sudeste 1.2 1014.9 -- 99
2020-11-04 18:00:00 18 10 Este 38 Nordeste 5.8 1015.2 -- 99
2020-11-04 17:00:00 19.9 6 Este 37 Este 0 1014.8 -- 89
2020-11-04 16:00:00 20 28 Nordeste 45 Nordeste 0 1015.2 -- 91
2020-11-04 15:00:00 20.5 33 Nordeste 43 Este 0 1015.3 -- 91
2020-11-04 14:00:00 21.3 29 Nordeste 44 Nordeste 0 1015.6 -- 87
2020-11-04 13:00:00 21.7 32 Nordeste 46 Nordeste 0 1016.4 -- 87
2020-11-04 12:00:00 21.3 39 Nordeste 47 Nordeste 0 1017 -- 90
2020-11-04 11:00:00 21 25 Nordeste 47 Nordeste 0 1017.8 -- 92
2020-11-04 10:00:00 21.1 27 Nordeste 43 Este 0 1018.2 0.6 90
2020-11-04 09:00:00 21.5 27 Nordeste 39 Nordeste 0 1017.6 -- 85
2020-11-04 08:00:00 20.5 3 Sur 12 Sur 0 1017.4 -- 69
2020-11-04 07:00:00 20.3 2 Sur 10 Sur 0 1017.6 -- 71
2020-11-04 06:00:00 20.3 3 Sur 8 Sur 0 1018.1 -- 68
2020-11-04 05:00:00 20.5 0 Calma 9 Sur 0 1018 -- 67
2020-11-04 04:00:00 20.6 3 Este 10 Sudeste 0 1018.3 -- 68
2020-11-04 03:00:00 20.5 3 Sur 10 Este 0 1018.6 -- 68
2020-11-04 02:00:00 20.4 5 Sur 14 Sudeste 0 1019.1 -- 68
2020-11-04 01:00:00 19.9 5 Sur 12 Sudeste 0 1018.9 -- 70
2020-11-04 00:00:00 20.8 4 Sudoeste 10 Sudeste 0 1018.8 -- 68
2020-11-03 23:00:00 20.5 5 Sur 11 Sur 0 1019 -- 63
2020-11-03 22:00:00 20.8 3 Sur 14 Sudeste 0 1019.7 -- 72
2020-11-03 21:00:00 21.7 7 Este 25 Nordeste 0 1019.6 -- 81
2020-11-03 20:00:00 21.9 17 Nordeste 27 Este 0 1019.1 -- 80
2020-11-03 19:00:00 21.9 21 Nordeste 34 Nordeste 0 1019.2 -- 82
2020-11-03 18:00:00 22.5 21 Nordeste 29 Este 0 1019.1 -- 80
2020-11-03 17:00:00 23.7 21 Nordeste 31 Nordeste 0 1019.1 -- 74
2020-11-03 16:00:00 24.2 24 Nordeste 32 Nordeste 0 1019 -- 73
2020-11-03 15:00:00 24.4 23 Nordeste 33 Nordeste 0 1019.1 -- 71
2020-11-03 14:00:00 24.8 23 Nordeste 33 Nordeste 0 1019 -- 70
2020-11-03 13:00:00 24.5 27 Nordeste 36 Nordeste 0 1019.3 -- 70
2020-11-03 12:00:00 24.3 22 Nordeste 29 Nordeste 0 1019.9 -- 72
2020-11-03 11:00:00 23.9 20 Nordeste 33 Nordeste 0 1020.5 -- 74
2020-11-03 10:00:00 23.2 14 Nordeste 24 Nordeste 0 1020.6 -- 74
2020-11-03 09:00:00 22.9 2 Sudeste 16 Sudeste 0 1020.7 -- 71
2020-11-03 08:00:00 21 7 Este 22 Este 0 1020.3 -- 81
2020-11-03 07:00:00 20.9 6 Nordeste 25 Nordeste 0 1019.7 -- 83
2020-11-03 06:00:00 20.9 6 Este 21 Nordeste 0 1019.9 -- 75
2020-11-03 05:00:00 21.1 7 Sudeste 20 Nordeste 0 1019.7 -- 75
2020-11-03 04:00:00 21.5 9 Este 19 Este 0 1019.6 -- 79
2020-11-03 03:00:00 20.4 6 Sur 12 Este 0 1019.9 -- 68
2020-11-03 02:00:00 20.6 6 Sur 12 Sudeste 0 1019.9 -- 65
2020-11-03 01:00:00 20.4 6 Sur 14 Sudeste 0 1020.5 -- 70
2020-11-03 00:00:00 20 7 Sur 13 Sur 0 1020.5 -- 65
2020-11-02 23:00:00 20.5 6 Sur 13 Sudeste 0 1020.5 -- 69
2020-11-02 22:00:00 21.2 5 Sudeste 17 Este 0 1020.3 -- 69
2020-11-02 21:00:00 20.6 8 Sur 17 Este 0 1020.2 -- 73
2020-11-02 20:00:00 21.8 6 Sudeste 22 Nordeste 0 1019.6 -- 82
2020-11-02 19:00:00 22.1 12 Este 23 Este 0 1019 -- 80
2020-11-02 18:00:00 22.5 18 Nordeste 24 Nordeste 0 1018.9 -- 83
2020-11-02 17:00:00 23.1 17 Nordeste 23 Este 0 1018.5 -- 80
2020-11-02 16:00:00 23.1 17 Nordeste 27 Nordeste 0 1018.8 -- 78
2020-11-02 15:00:00 23.3 19 Nordeste 24 Nordeste 0 1018.5 -- 77
2020-11-02 14:00:00 23.7 18 Nordeste 24 Nordeste 0 1018.7 -- 76
2020-11-02 13:00:00 25.1 21 Nordeste 26 Nordeste 0 1019 -- 70
2020-11-02 12:00:00 24.2 21 Nordeste 28 Nordeste 0 1019.9 -- 78
2020-11-02 11:00:00 22.8 20 Nordeste 27 Nordeste 0 1020.3 -- 81
2020-11-02 10:00:00 22.4 15 Este 21 Este 0 1020.2 -- 77
2020-11-02 09:00:00 22.4 5 Sudeste 14 Sudeste 0 1019.6 -- 63
2020-11-02 08:00:00 19.9 9 Sudeste 15 Sur 0 1019.1 -- 58
2020-11-02 07:00:00 19 9 Sur 15 Sur 0 1018.9 -- 64
2020-11-02 06:00:00 19.1 5 Sur 10 Sur 0 1018.4 -- 65
2020-11-02 05:00:00 19.5 6 Sur 11 Sur 0 1018.1 -- 67
2020-11-02 04:00:00 19.1 4 Sur 8 Sur 0 1018.3 -- 71
2020-11-02 03:00:00 20.3 3 Sur 9 Sudoeste 0 1018.5 -- 87
2020-11-02 02:00:00 20.7 6 Sudoeste 12 Sudoeste 0 1018.5 -- 86
2020-11-02 01:00:00 21 4 Sur 11 Sudoeste 0 1018.9 -- 82
2020-11-02 00:00:00 20.6 3 Sur 9 Sur 0 1019 -- 63
2020-11-01 23:00:00 21.7 0 Calma 12 Sur 0 1019 -- 85
2020-11-01 22:00:00 21.9 5 Sudoeste 23 Nordeste 0 1019.3 -- 89
2020-11-01 21:00:00 22.3 16 Nordeste 29 Nordeste 0 1019 -- 92
2020-11-01 20:00:00 22.8 18 Nordeste 28 Nordeste 0 1018.1 -- 87
2020-11-01 19:00:00 23.4 9 Este 37 Nordeste 0 1017.2 -- 78
2020-11-01 18:00:00 23.8 32 Nordeste 50 Nordeste 0 1016.3 -- 80
2020-11-01 17:00:00 28.3 34 Nordeste 60 Nordeste 0 1014.7 -- 37
2020-11-01 16:00:00 26.6 38 Nordeste 72 Nordeste 0 1014.8 -- 46
2020-11-01 15:00:00 26.3 52 Nordeste 72 Nordeste 0 1014.2 -- 49
2020-11-01 14:00:00 30.4 26 Nordeste 44 Nordeste 0 1014 -- 31
2020-11-01 13:00:00 31.1 14 Nordeste 35 Norte 0 1015 -- 29
2020-11-01 12:00:00 29.1 9 Sudoeste 16 Oeste 0 1016.4 -- 34
2020-11-01 11:00:00 27.6 9 Oeste 17 Sudoeste 0 1017.1 -- 33
2020-11-01 10:00:00 26.3 10 Sudoeste 17 Oeste 0 1017.3 -- 36
2020-11-01 09:00:00 26 2 Sudoeste 12 Sudoeste 0 1017 -- 36
2020-11-01 08:00:00 24.1 6 Sudoeste 17 Oeste 0 1016.5 -- 36
2020-11-01 07:00:00 23.2 5 Sudoeste 10 Sudoeste 0 1016.2 -- 36
2020-11-01 06:00:00 22.8 6 Sur 12 Sur 0 1016.5 -- 43
2020-11-01 05:00:00 22.2 4 Sudoeste 10 Sudoeste 0 1016.5 -- 43
2020-11-01 04:00:00 23.1 4 Sur 14 Sudoeste 0 1016.5 -- 43
2020-11-01 03:00:00 23.4 5 Sudoeste 13 Sur 0 1016.8 -- 43
2020-11-01 02:00:00 22.9 4 Sudoeste 12 Oeste 0 1017 -- 47
2020-11-01 01:00:00 23.8 4 Sudoeste 24 Este 0 1017.2 -- 50
2020-11-01 00:00:00 24.7 21 Este 38 Este 0 1017.3 -- 54
2020-10-31 23:00:00 24 2 Sur 14 Sur 0 1017.1 -- 38
2020-10-31 22:00:00 23.8 0 Calma 9 Sudoeste 0 1017.2 -- 40
2020-10-31 21:00:00 24.8 5 Sudoeste 12 Sudoeste 0 1016.8 -- 39
2020-10-31 20:00:00 23.9 0 Calma 9 Sudoeste 0 1016.3 -- 52
2020-10-31 19:00:00 24.7 3 Sudoeste 8 Sudoeste 0 1016.4 -- 60
2020-10-31 18:00:00 26.1 3 Sudoeste 5 Sudoeste 0 1016.2 -- 52
2020-10-31 17:00:00 26.9 0 Calma 6 Nordeste 0 1016.2 -- 52
2020-10-31 16:00:00 26.6 3 Norte 6 Norte 0 1016.2 -- 52
2020-10-31 15:00:00 26.3 3 Norte 7 Norte 0 1016 -- 51
2020-10-31 14:00:00 25.9 4 Norte 11 Noroeste 0 1016.4 -- 52
2020-10-31 13:00:00 26.1 4 Noroeste 9 Este 0 1016.8 -- 49
2020-10-31 12:00:00 26.9 8 Nordeste 11 Nordeste 0 1017.1 -- 60
2020-10-31 11:00:00 24.3 3 Noroeste 9 Nordeste 0 1017.8 -- 63
2020-10-31 10:00:00 24.3 3 Nordeste 5 Este 0 1017.8 -- 61
2020-10-31 09:00:00 22.7 2 Sudoeste 19 Sudeste 0 1017.7 -- 48
2020-10-31 08:00:00 20 4 Sudoeste 15 Sur 0 1017.3 -- 66
2020-10-31 07:00:00 20.1 5 Sudoeste 15 Sudeste 0 1016.7 -- 75
2020-10-31 06:00:00 19.6 5 Sur 14 Sur 0 1015.9 -- 68
2020-10-31 05:00:00 19.9 4 Sudoeste 10 Sudoeste 0 1015.4 -- 82
2020-10-31 04:00:00 19.8 3 Sudoeste 10 Sur 0 1015.6 -- 86
2020-10-31 03:00:00 19.8 5 Sur 10 Sur 0 1016.5 -- 86
2020-10-31 02:00:00 19.8 3 Sur 13 Sur 0 1016.7 -- 85
2020-10-31 01:00:00 19.8 5 Sur 13 Sur 0 1017.1 -- 83
2020-10-31 00:00:00 20.1 5 Sur 12 Sur 0 1017 -- 82
2020-10-30 23:00:00 20.7 5 Sur 10 Sur 0 1017.4 -- 79
2020-10-30 22:00:00 21.1 3 Sur 9 Sur 0 1017.2 -- 78
2020-10-30 21:00:00 21.9 0 Calma 9 Nordeste 0 1016.7 -- 83
2020-10-30 20:00:00 22.5 5 Nordeste 12 Este 0 1016.1 -- 84
2020-10-30 19:00:00 22.7 8 Nordeste 12 Nordeste 0 1015.5 -- 83
2020-10-30 18:00:00 23.1 8 Nordeste 12 Nordeste 0 1014.8 -- 78
2020-10-30 17:00:00 23.8 9 Nordeste 13 Nordeste 0 1014.6 -- 74
2020-10-30 16:00:00 24.4 10 Nordeste 14 Nordeste 0 1014.5 -- 73
2020-10-30 15:00:00 24.1 10 Nordeste 17 Nordeste 0 1014.7 -- 72
2020-10-30 14:00:00 24.4 9 Nordeste 14 Nordeste 0 1015.2 -- 70
2020-10-30 13:00:00 24.7 9 Nordeste 14 Nordeste 0 1015.6 -- 70
2020-10-30 12:00:00 24.3 8 Nordeste 14 Nordeste 0 1016.5 -- 68
2020-10-30 11:00:00 24.9 12 Nordeste 15 Nordeste 0 1016.6 -- 66
2020-10-30 10:00:00 23.8 9 Nordeste 13 Nordeste 0 1017 -- 68
2020-10-30 09:00:00 22.1 4 Sudeste 10 Sudeste 0 1017 -- 68
2020-10-30 08:00:00 20.9 4 Sur 10 Sudeste 0 1016.9 -- 65
2020-10-30 07:00:00 20.8 5 Sur 10 Sur 0 1016.1 -- 64
2020-10-30 06:00:00 20.8 5 Sur 9 Sudeste 0 1016 -- 66
2020-10-30 05:00:00 20.9 0 Calma 8 Sur 0 1015.9 -- 68
2020-10-30 04:00:00 21.1 2 Sur 8 Sudeste 0 1015.8 -- 68
2020-10-30 03:00:00 20.9 4 Sur 7 Este 0 1016.1 -- 68
2020-10-30 02:00:00 21.3 0 Calma 17 Nordeste 0 1016.6 -- 77
2020-10-30 01:00:00 21.3 0 Calma 9 Sudeste 0 1016.5 -- 71
2020-10-30 00:00:00 21.4 5 Este 17 Nordeste 0 1016.9 -- 76
2020-10-29 23:00:00 21.5 2 Sur 7 Sudoeste 0 1017.1 -- 62
2020-10-29 22:00:00 21.4 2 Este 15 Nordeste 0 1017.4 -- 73
2020-10-29 21:00:00 21.5 9 Este 19 Nordeste 0 1017.3 -- 75
2020-10-29 20:00:00 21.6 14 Nordeste 23 Nordeste 0 1016.8 -- 75
2020-10-29 19:00:00 22 16 Nordeste 23 Nordeste 0 1016.4 -- 75
2020-10-29 18:00:00 22.2 15 Nordeste 19 Nordeste 0 1016.1 -- 72
2020-10-29 17:00:00 22.6 12 Nordeste 17 Nordeste 0 1015.8 -- 67
2020-10-29 16:00:00 23.1 8 Nordeste 19 Nordeste 0 1015.8 -- 62
2020-10-29 15:00:00 23.4 6 Nordeste 14 Nordeste 0 1015.8 -- 60
2020-10-29 14:00:00 23.4 8 Nordeste 15 Nordeste 0 1016.2 -- 61
2020-10-29 13:00:00 22.9 9 Nordeste 18 Norte 0 1017.1 -- 63
2020-10-29 12:00:00 23.2 11 Nordeste 18 Este 0 1018 -- 62
2020-10-29 11:00:00 23 11 Nordeste 15 Nordeste 0 1018.3 -- 62
2020-10-29 10:00:00 21.8 4 Este 18 Este 0 1018.4 -- 65
2020-10-29 09:00:00 21.6 10 Este 17 Nordeste 0 1018.4 -- 67
2020-10-29 08:00:00 21 5 Sur 12 Sur 0 1017.9 -- 58
2020-10-29 07:00:00 20.8 4 Sur 10 Sur 0 1017.6 -- 61
2020-10-29 06:00:00 20.9 6 Sudeste 13 Sudeste 0 1017.2 -- 61
2020-10-29 05:00:00 20.9 3 Sur 15 Sur 0 1017.2 -- 62
2020-10-29 04:00:00 20.8 5 Sudeste 13 Sur 0 1017.1 -- 61
2020-10-29 03:00:00 20.9 5 Sur 14 Sudeste 0 1017.4 -- 61
2020-10-29 02:00:00 21 5 Sur 12 Sudeste 0 1017.8 -- 64
2020-10-29 01:00:00 21.1 5 Sudeste 15 Este 0 1018.3 -- 67
2020-10-29 00:00:00 20.9 4 Sudeste 14 Nordeste 0 1018.6 -- 69
2020-10-28 23:00:00 21 4 Sudeste 10 Este 0 1019 -- 71
2020-10-28 22:00:00 20.6 4 Sudeste 22 Nordeste 0 1019.2 -- 74
2020-10-28 21:00:00 20.7 12 Este 28 Este 0 1019.2 -- 78
2020-10-28 20:00:00 21.4 7 Este 20 Nordeste 0 1018.6 -- 69
2020-10-28 19:00:00 21.5 15 Nordeste 29 Este 0 1018.2 -- 69
2020-10-28 18:00:00 21.5 19 Nordeste 29 Nordeste 0 1017.7 -- 70
2020-10-28 17:00:00 21.9 20 Nordeste 27 Nordeste 0 1017.5 -- 68
2020-10-28 16:00:00 22 18 Nordeste 27 Este 0 1017.5 -- 72
2020-10-28 15:00:00 22.7 16 Nordeste 24 Nordeste 0 1017.7 -- 64
2020-10-28 14:00:00 22.8 21 Nordeste 30 Nordeste 0 1018.1 -- 64
2020-10-28 13:00:00 22.1 24 Nordeste 36 Nordeste 0 1018.8 -- 70
2020-10-28 12:00:00 22.4 16 Nordeste 29 Nordeste 0 1019.4 -- 63
2020-10-28 11:00:00 22.3 17 Nordeste 28 Nordeste 0 1019.8 -- 65
2020-10-28 10:00:00 21.9 15 Nordeste 26 Nordeste 0 1019.8 -- 65
2020-10-28 09:00:00 21.6 6 Este 23 Nordeste 0 1019.3 -- 66
2020-10-28 08:00:00 21.2 5 Sudeste 11 Sudeste 0 1018.5 -- 64
2020-10-28 07:00:00 20.9 4 Sur 11 Sudeste 0 1017.9 -- 64
2020-10-28 06:00:00 20.9 5 Sudeste 22 Nordeste 0 1017.6 -- 64
2020-10-28 05:00:00 21.3 10 Este 25 Nordeste 0 1017.6 -- 70
2020-10-28 04:00:00 21.3 9 Este 24 Nordeste 0 1017.6 -- 70
2020-10-28 03:00:00 21 4 Sudeste 15 Este 0 1017.6 -- 67
2020-10-28 02:00:00 21 5 Sudeste 12 Nordeste 0 1017.9 -- 68
2020-10-28 01:00:00 20.8 4 Este 9 Este 0 1018.7 -- 64
2020-10-28 00:00:00 20.5 5 Sur 10 Sudeste 0 1019 -- 63